00:03
Airports
Links
Donate
Help keep this website running!
PayPal
Bitcoin
METAR
KRNT 162353Z 22008KT 10SM FEW070 16/09 A3015 RMK AO2 SLP215 T01610094 10178 20133 56009
Current Weather Conditions at KRNT
VFR 23:53:00 16-10-17
Automated station
Altimeter:30.15 hg
Temp:16.1°c 61°f
Dew point:9.4°c 48°f
Wind:8 knots, 9.2 mph, 4 m/s, from 220°
Visibility:10.0 statute miles
7000(FEW) A few
Past METAR reports
VFR 22:53:00 16-10-17
Automated station
Altimeter:30.16 hg
Temp:16.1°c 61°f
Dew point:9.4°c 48°f
Wind:6 knots, 6.9 mph, 3 m/s, from 190°
Visibility:10.0 statute miles
11000(OVC) Overcast
KRNT 162253Z 19006KT 10SM OVC110 16/09 A3016 RMK AO2 SLP218 T01610094
VFR 21:53:00 16-10-17
Automated station
Altimeter:30.16 hg
Temp:17.8°c 63°f
Dew point:9.4°c 48°f
Wind:10 knots, 11.5 mph, 5 m/s, from 170°
Visibility:10.0 statute miles
11000(FEW) A few
KRNT 162153Z 17010G17KT 10SM FEW110 18/09 A3016 RMK AO2 SLP218 T01780094
VFR 20:53:00 16-10-17
Automated station
Altimeter:30.18 hg
Temp:16.7°c 61°f
Dew point:9.4°c 48°f
Wind:8 knots, 9.2 mph, 4 m/s, from 180°
Visibility:10.0 statute miles
(CLR) Clear
KRNT 162053Z 18008KT 10SM CLR 17/09 A3018 RMK AO2 SLP224 T01670094 56018
VFR 19:53:00 16-10-17
Automated station
Altimeter:30.18 hg
Temp:16.1°c 61°f
Dew point:8.9°c 46°f
Wind:8 knots, 9.2 mph, 4 m/s, from 150°
Visibility:10.0 statute miles
(CLR) Clear
KRNT 161953Z 15008KT 10SM CLR 16/09 A3018 RMK AO2 SLP224 T01610089
VFR 18:53:00 16-10-17
Automated station
Altimeter:30.20 hg
Temp:14.4°c 57°f
Dew point:8.9°c 46°f
Wind:10 knots, 11.5 mph, 5 m/s, from 150°
Visibility:10.0 statute miles
(CLR) Clear
KRNT 161853Z 15010KT 10SM CLR 14/09 A3020 RMK AO2 SLP231 T01440089
TAF
No TAF for KRNT
Forecast at KRNT
No Forecast Reports for KRNT